Time;durP1;ratioP1;P1;durP2;ratioP2;P2;SDS_P1;SDS_P2;PMS_P1;PMS_P2;Temp;Humidity;BMP_temperature;BMP_pressure;BME280_temperature;BME280_humidity;BME280_pressure;Samples;Min_cycle;Max_cycle;Signal;HPM_P1;HPM_P2
2023/11/14 00:00:23;;;;;;;6.43;1.83;;;10.60;94.60;;;;;;5008209;28;20137;-80
2023/11/14 00:02:49;;;;;;;1.25;0.73;;;10.60;94.70;;;;;;5023168;28;20443;-80
2023/11/14 00:05:14;;;;;;;5.40;1.42;;;10.50;94.90;;;;;;5006779;28;20120;-80
2023/11/14 00:07:40;;;;;;;5.82;2.20;;;10.50;95.00;;;;;;5009333;28;20396;-81
2023/11/14 00:10:06;;;;;;;4.75;1.45;;;10.60;94.60;;;;;;5009839;28;20057;-81
2023/11/14 00:12:31;;;;;;;3.63;0.95;;;10.70;93.90;;;;;;5003152;28;20025;-81
2023/11/14 00:14:57;;;;;;;6.53;1.67;;;10.70;94.00;;;;;;5004266;28;20540;-81
2023/11/14 00:17:22;;;;;;;2.88;1.00;;;10.70;94.10;;;;;;5008978;28;20541;-81
2023/11/14 00:19:48;;;;;;;5.60;1.27;;;10.60;94.30;;;;;;5011185;28;20053;-80
2023/11/14 00:22:14;;;;;;;4.70;1.00;;;10.60;94.10;;;;;;5008161;28;20033;-83
2023/11/14 00:24:40;;;;;;;3.63;0.70;;;10.60;94.00;;;;;;5004648;28;20050;-81
2023/11/14 00:27:05;;;;;;;3.40;1.30;;;10.60;94.30;;;;;;5005612;28;20054;-80
2023/11/14 00:29:31;;;;;;;2.88;1.23;;;10.60;94.00;;;;;;5006131;28;20029;-81
2023/11/14 00:31:56;;;;;;;3.80;1.38;;;10.60;93.90;;;;;;5004189;28;20093;-81
2023/11/14 00:34:22;;;;;;;4.38;1.02;;;10.70;93.70;;;;;;5007527;28;20166;-82
2023/11/14 00:36:48;;;;;;;1.42;0.60;;;10.60;93.80;;;;;;5008775;28;20679;-81
2023/11/14 00:39:17;;;;;;;3.40;0.75;;;10.60;94.20;;;;;;5009822;28;20029;-82
2023/11/14 00:41:54;;;;;;;4.80;1.23;;;10.70;93.50;;;;;;5005587;28;20044;-80
2023/11/14 00:44:21;;;;;;;2.50;1.48;;;10.70;93.20;;;;;;5007771;28;20125;-81
2023/11/14 00:46:47;;;;;;;3.75;1.10;;;10.70;93.40;;;;;;4999623;28;20034;-81
2023/11/14 00:49:13;;;;;;;3.90;1.33;;;10.70;93.20;;;;;;5011225;28;20157;-81
2023/11/14 00:51:39;;;;;;;4.35;1.08;;;10.70;93.30;;;;;;5005803;28;20165;-82
2023/11/14 00:54:05;;;;;;;6.00;1.55;;;10.80;92.50;;;;;;5011184;28;20541;-81
2023/11/14 00:56:30;;;;;;;3.33;0.85;;;10.80;93.00;;;;;;5011518;28;20037;-80
2023/11/14 00:58:56;;;;;;;2.42;0.95;;;10.90;92.10;;;;;;5004578;28;20044;-81
2023/11/14 01:01:21;;;;;;;3.67;1.13;;;10.90;92.20;;;;;;5004067;28;20033;-81
2023/11/14 01:03:47;;;;;;;3.80;1.15;;;10.80;92.60;;;;;;5003107;28;20077;-82
2023/11/14 01:06:12;;;;;;;5.25;1.55;;;11.00;92.10;;;;;;5011351;28;20178;-82
2023/11/14 01:08:38;;;;;;;4.75;1.15;;;11.00;91.90;;;;;;5009310;28;20026;-82
2023/11/14 01:11:03;;;;;;;7.07;1.17;;;11.00;91.80;;;;;;5008947;28;20140;-81
2023/11/14 01:13:29;;;;;;;2.30;0.70;;;11.00;91.90;;;;;;5008097;28;20061;-81
2023/11/14 01:15:54;;;;;;;5.47;1.35;;;11.00;92.20;;;;;;5006766;28;20402;-80
2023/11/14 01:18:20;;;;;;;4.72;0.95;;;11.00;92.00;;;;;;5008818;28;20053;-81
2023/11/14 01:20:45;;;;;;;5.30;1.10;;;11.10;91.30;;;;;;5004709;28;20038;-81
2023/11/14 01:23:11;;;;;;;5.45;1.48;;;11.10;91.10;;;;;;5008431;28;20050;-81
2023/11/14 01:25:39;;;;;;;2.92;1.15;;;11.00;91.50;;;;;;5004518;28;20108;-81
2023/11/14 01:28:04;;;;;;;3.80;1.20;;;11.10;91.30;;;;;;5004182;28;20029;-82
2023/11/14 01:30:30;;;;;;;6.72;1.00;;;11.10;91.20;;;;;;5003446;28;20034;-82
2023/11/14 01:32:56;;;;;;;6.57;1.55;;;11.10;91.00;;;;;;5008096;28;20454;-80
2023/11/14 01:35:22;;;;;;;1.98;0.63;;;11.10;91.30;;;;;;5000995;28;20026;-82
2023/11/14 01:37:48;;;;;;;3.85;1.15;;;11.10;91.30;;;;;;4995656;28;20148;-82
2023/11/14 01:40:14;;;;;;;2.13;0.88;;;11.10;91.40;;;;;;5009362;28;20038;-82
2023/11/14 01:42:40;;;;;;;9.15;1.45;;;11.00;91.60;;;;;;5006465;28;20584;-81
2023/11/14 01:45:06;;;;;;;3.33;0.70;;;11.00;91.60;;;;;;5004351;28;20529;-81
2023/11/14 01:47:31;;;;;;;5.88;1.38;;;11.10;91.50;;;;;;5007842;28;20104;-82
2023/11/14 01:49:57;;;;;;;2.92;0.98;;;11.10;91.50;;;;;;5003464;28;20092;-82
2023/11/14 01:52:23;;;;;;;4.47;1.55;;;11.10;91.30;;;;;;5002285;28;20177;-82
2023/11/14 01:54:49;;;;;;;6.82;1.85;;;11.20;90.80;;;;;;5006643;28;20029;-83
2023/11/14 01:57:15;;;;;;;5.53;0.70;;;11.10;91.10;;;;;;5009889;28;20037;-81
2023/11/14 01:59:42;;;;;;;0.85;0.57;;;11.20;90.70;;;;;;5001138;28;20045;-81
2023/11/14 02:02:07;;;;;;;4.03;1.00;;;11.20;90.80;;;;;;5014290;28;20456;-80
2023/11/14 02:04:35;;;;;;;3.35;1.48;;;11.20;90.90;;;;;;5005320;28;20042;-83
2023/11/14 02:07:01;;;;;;;5.75;1.77;;;11.30;90.30;;;;;;5001388;28;20117;-82
2023/11/14 02:09:27;;;;;;;3.58;1.35;;;11.30;90.60;;;;;;5011869;28;20117;-83
2023/11/14 02:11:55;;;;;;;9.35;2.03;;;11.20;91.00;;;;;;5006210;28;20065;-83
2023/11/14 02:14:20;;;;;;;3.65;0.80;;;11.30;90.50;;;;;;4999337;28;20038;-82
2023/11/14 02:16:55;;;;;;;3.90;1.05;;;11.30;90.90;;;;;;5022159;28;20038;-81
2023/11/14 02:19:22;;;;;;;2.97;1.02;;;11.30;91.20;;;;;;5005765;28;20061;-83
2023/11/14 02:21:48;;;;;;;3.40;1.20;;;11.30;90.60;;;;;;5006340;28;20034;-82
2023/11/14 02:24:18;;;;;;;7.50;1.25;;;11.30;91.10;;;;;;5005936;28;20124;-83
2023/11/14 02:26:48;;;;;;;6.33;1.03;;;11.30;90.30;;;;;;5002669;28;20250;-82
2023/11/14 02:29:15;;;;;;;1.00;0.60;;;11.40;90.00;;;;;;5007889;28;20173;-83
2023/11/14 02:31:41;;;;;;;3.25;1.70;;;11.30;90.20;;;;;;5008043;28;20038;-82
2023/11/14 02:34:06;;;;;;;4.75;1.10;;;11.50;89.50;;;;;;5004144;28;20042;-83
2023/11/14 02:36:32;;;;;;;3.67;1.13;;;11.50;89.80;;;;;;5009320;28;20040;-81
2023/11/14 02:38:58;;;;;;;2.63;0.95;;;11.40;90.00;;;;;;5004744;28;20040;-81
2023/11/14 02:41:23;;;;;;;3.15;1.10;;;11.40;89.70;;;;;;4999953;28;20097;-82
2023/11/14 02:43:49;;;;;;;9.48;1.45;;;11.50;89.00;;;;;;5005899;28;20044;-81
2023/11/14 02:46:14;;;;;;;3.70;0.88;;;11.50;89.00;;;;;;5003047;28;20061;-83
2023/11/14 02:48:41;;;;;;;3.42;1.13;;;11.60;89.00;;;;;;5005506;28;20080;-82
2023/11/14 02:51:06;;;;;;;4.35;1.35;;;11.60;88.90;;;;;;5009492;28;20042;-82
2023/11/14 02:53:32;;;;;;;3.28;0.88;;;11.60;89.00;;;;;;5007712;28;20386;-82
2023/11/14 02:55:57;;;;;;;10.50;1.45;;;11.60;89.50;;;;;;5005123;28;20138;-81
2023/11/14 02:58:23;;;;;;;2.53;0.65;;;11.50;89.60;;;;;;4996933;28;20061;-81
2023/11/14 03:00:48;;;;;;;4.43;1.85;;;11.50;90.00;;;;;;5006203;28;20041;-82
2023/11/14 03:03:15;;;;;;;6.45;1.67;;;11.50;90.00;;;;;;5006916;28;20079;-81
2023/11/14 03:05:41;;;;;;;3.90;1.40;;;11.50;89.80;;;;;;5007300;28;20986;-82
2023/11/14 03:08:07;;;;;;;3.65;1.20;;;11.40;90.50;;;;;;5006937;28;20112;-82
2023/11/14 03:10:32;;;;;;;7.18;1.38;;;11.40;90.20;;;;;;5003761;28;20568;-82
2023/11/14 03:12:59;;;;;;;4.88;1.10;;;11.40;90.30;;;;;;5002311;28;20042;-82
2023/11/14 03:15:26;;;;;;;4.65;1.15;;;11.40;90.40;;;;;;5003621;28;20083;-82
2023/11/14 03:17:56;;;;;;;3.28;1.00;;;11.50;89.80;;;;;;5006398;28;20431;-83
2023/11/14 03:20:23;;;;;;;2.85;0.90;;;11.50;89.60;;;;;;5006912;28;20065;-81
2023/11/14 03:22:48;;;;;;;1.92;1.02;;;11.50;89.90;;;;;;5007070;28;20044;-81
2023/11/14 03:25:14;;;;;;;5.10;1.27;;;11.60;89.30;;;;;;5006338;28;20037;-83
2023/11/14 03:27:40;;;;;;;4.68;1.48;;;11.50;89.90;;;;;;5002943;28;20211;-82
2023/11/14 03:30:07;;;;;;;1.15;0.60;;;11.50;89.80;;;;;;5006718;28;20034;-81
2023/11/14 03:32:32;;;;;;;4.68;0.80;;;11.50;90.40;;;;;;5006327;28;20033;-82
2023/11/14 03:34:58;;;;;;;3.55;0.80;;;11.40;90.50;;;;;;5003283;28;20033;-82
2023/11/14 03:37:24;;;;;;;2.80;1.45;;;11.40;90.60;;;;;;5005500;28;20037;-81
2023/11/14 03:39:49;;;;;;;2.58;1.05;;;11.40;90.60;;;;;;5005889;28;20099;-83
2023/11/14 03:42:14;;;;;;;4.57;1.17;;;11.40;91.00;;;;;;5004657;28;20521;-80
2023/11/14 03:44:40;;;;;;;2.55;0.65;;;11.40;91.20;;;;;;5002273;28;20085;-81
2023/11/14 03:47:06;;;;;;;4.75;1.00;;;11.30;91.70;;;;;;5007186;28;20045;-81
2023/11/14 03:49:31;;;;;;;3.35;1.15;;;11.30;91.80;;;;;;5001832;28;20032;-82
2023/11/14 03:51:57;;;;;;;1.10;0.75;;;11.30;92.10;;;;;;5007890;28;20057;-81
2023/11/14 03:54:23;;;;;;;4.75;1.05;;;11.30;92.20;;;;;;5009981;28;20048;-81
2023/11/14 03:56:48;;;;;;;5.32;1.20;;;11.30;92.00;;;;;;5005417;28;20395;-80
2023/11/14 03:59:14;;;;;;;3.97;1.90;;;11.30;91.80;;;;;;5002139;28;20038;-81
2023/11/14 04:01:39;;;;;;;3.15;0.93;;;11.40;91.60;;;;;;5003116;28;20148;-81
2023/11/14 04:04:05;;;;;;;3.03;0.90;;;11.30;92.00;;;;;;5005919;28;20042;-82
2023/11/14 04:06:30;;;;;;;5.85;1.60;;;11.30;91.60;;;;;;5004590;28;20033;-82
2023/11/14 04:08:56;;;;;;;3.53;0.85;;;11.30;91.50;;;;;;5003881;28;20112;-80
2023/11/14 04:11:21;;;;;;;4.07;0.82;;;11.40;91.50;;;;;;5010338;28;20383;-81
2023/11/14 04:13:47;;;;;;;2.20;0.57;;;11.40;91.40;;;;;;5005061;28;20042;-81
2023/11/14 04:16:13;;;;;;;6.65;1.17;;;11.30;91.70;;;;;;5009579;28;20037;-82
2023/11/14 04:18:39;;;;;;;6.15;1.63;;;11.30;91.70;;;;;;5008929;28;20458;-80
2023/11/14 04:21:05;;;;;;;3.85;1.08;;;11.40;91.30;;;;;;5008371;28;20459;-82
2023/11/14 04:23:30;;;;;;;2.53;0.98;;;11.40;91.70;;;;;;5009039;28;20042;-81
2023/11/14 04:25:56;;;;;;;5.70;1.08;;;11.40;91.70;;;;;;5011458;28;20103;-80
2023/11/14 04:28:21;;;;;;;2.00;1.02;;;11.40;91.50;;;;;;5005739;28;20076;-81
2023/11/14 04:30:47;;;;;;;4.63;1.50;;;11.40;91.80;;;;;;5004802;28;20038;-83
2023/11/14 04:33:12;;;;;;;3.45;0.93;;;11.40;91.60;;;;;;5008550;28;20030;-81
2023/11/14 04:35:38;;;;;;;1.83;0.68;;;11.30;92.00;;;;;;5010113;28;20084;-80
2023/11/14 04:38:03;;;;;;;3.20;0.93;;;11.30;92.00;;;;;;5009152;28;20498;-81
2023/11/14 04:40:31;;;;;;;3.15;1.25;;;11.40;91.30;;;;;;5004384;28;20018;-82
2023/11/14 04:42:57;;;;;;;5.28;1.48;;;11.50;90.50;;;;;;5010022;28;20084;-81
2023/11/14 04:45:22;;;;;;;4.95;1.83;;;11.40;91.10;;;;;;5000859;28;20037;-80
2023/11/14 04:47:48;;;;;;;5.93;1.42;;;11.50;90.60;;;;;;5010696;28;20034;-80
2023/11/14 04:50:14;;;;;;;4.07;1.13;;;11.50;90.50;;;;;;5009617;28;20506;-82
2023/11/14 04:52:40;;;;;;;4.07;1.00;;;11.50;90.20;;;;;;5012232;28;20042;-82
2023/11/14 04:55:05;;;;;;;3.45;0.65;;;11.50;90.30;;;;;;5007052;28;20049;-80
2023/11/14 04:57:31;;;;;;;6.57;1.30;;;11.50;90.10;;;;;;4999489;28;20081;-84
2023/11/14 04:59:57;;;;;;;3.55;1.25;;;11.50;90.70;;;;;;5011254;28;20045;-80
2023/11/14 05:02:24;;;;;;;3.30;0.65;;;11.50;91.20;;;;;;5006433;28;20030;-82
2023/11/14 05:04:49;;;;;;;2.58;0.77;;;11.40;91.60;;;;;;5010638;28;20030;-81
2023/11/14 05:07:15;;;;;;;2.78;1.13;;;11.20;92.30;;;;;;5002996;28;20125;-80
2023/11/14 05:09:41;;;;;;;2.70;0.90;;;11.20;92.50;;;;;;5005575;28;20025;-82
2023/11/14 05:12:06;;;;;;;2.70;0.98;;;11.20;92.10;;;;;;5005528;28;20100;-82
2023/11/14 05:14:32;;;;;;;10.20;1.70;;;11.40;91.20;;;;;;5006739;28;20038;-83
2023/11/14 05:16:57;;;;;;;1.20;0.47;;;11.40;91.40;;;;;;5006340;28;20107;-83
2023/11/14 05:19:23;;;;;;;4.40;0.85;;;11.30;91.90;;;;;;5012339;28;20084;-82
2023/11/14 05:21:50;;;;;;;4.22;1.33;;;11.30;91.80;;;;;;5009699;28;20620;-81
2023/11/14 05:24:16;;;;;;;2.22;0.88;;;11.30;91.80;;;;;;5009715;28;20398;-81
2023/11/14 05:26:42;;;;;;;6.32;1.27;;;11.30;91.60;;;;;;5006728;28;20046;-77
2023/11/14 05:29:07;;;;;;;5.93;1.17;;;11.30;91.50;;;;;;5008038;28;20505;-74
2023/11/14 05:31:34;;;;;;;6.43;0.82;;;11.40;91.50;;;;;;5007151;28;20109;-76
2023/11/14 05:34:00;;;;;;;4.13;1.45;;;11.40;91.40;;;;;;5007883;28;20114;-75
2023/11/14 05:36:25;;;;;;;5.35;1.23;;;11.40;91.60;;;;;;5005949;28;20025;-75
2023/11/14 05:38:51;;;;;;;5.40;1.23;;;11.40;91.40;;;;;;5007926;28;20030;-76
2023/11/14 05:41:16;;;;;;;8.93;1.00;;;11.40;91.00;;;;;;5007044;28;20466;-75
2023/11/14 05:43:42;;;;;;;4.68;0.95;;;11.50;90.70;;;;;;5002821;28;20034;-76
2023/11/14 05:46:08;;;;;;;3.55;0.80;;;11.50;90.70;;;;;;5003454;28;20109;-75
2023/11/14 05:48:34;;;;;;;2.63;0.77;;;11.40;90.90;;;;;;4998779;28;20104;-76
2023/11/14 05:51:00;;;;;;;5.82;1.38;;;11.50;90.70;;;;;;5004159;28;20062;-74
2023/11/14 05:53:25;;;;;;;5.35;0.82;;;11.50;91.20;;;;;;5003379;28;20394;-74
2023/11/14 05:55:51;;;;;;;2.10;0.85;;;11.50;90.90;;;;;;5002900;28;20049;-72
2023/11/14 05:58:16;;;;;;;3.83;0.80;;;11.50;90.60;;;;;;5005737;28;20030;-73
2023/11/14 06:00:42;;;;;;;4.82;1.25;;;11.50;91.10;;;;;;5003558;28;20487;-74
2023/11/14 06:03:07;;;;;;;5.00;1.40;;;11.50;90.90;;;;;;5008004;28;20484;-74
2023/11/14 06:05:33;;;;;;;4.65;1.23;;;11.40;91.10;;;;;;5001860;28;20026;-74
2023/11/14 06:07:59;;;;;;;8.65;2.15;;;11.50;90.80;;;;;;5009916;28;20038;-74
2023/11/14 06:10:24;;;;;;;5.10;1.23;;;11.50;90.90;;;;;;5008364;28;20030;-73
2023/11/14 06:12:51;;;;;;;3.88;1.15;;;11.40;91.40;;;;;;5008023;28;20057;-73
2023/11/14 06:15:17;;;;;;;3.83;1.05;;;11.40;91.80;;;;;;5004572;28;20042;-73
2023/11/14 06:17:43;;;;;;;6.43;0.98;;;11.30;92.00;;;;;;5007523;28;20026;-75
2023/11/14 06:20:09;;;;;;;7.88;1.10;;;11.30;92.20;;;;;;5007407;28;20034;-74
2023/11/14 06:22:35;;;;;;;2.40;0.65;;;11.30;92.30;;;;;;5001635;28;20042;-75
2023/11/14 06:25:03;;;;;;;3.95;1.30;;;11.30;92.10;;;;;;5008130;28;20113;-74
2023/11/14 06:27:29;;;;;;;3.20;1.35;;;11.30;92.00;;;;;;5006050;28;20049;-75
2023/11/14 06:29:56;;;;;;;2.55;1.08;;;11.30;92.20;;;;;;5007111;28;20113;-76
2023/11/14 06:32:22;;;;;;;9.98;1.25;;;11.30;92.20;;;;;;5009011;28;20068;-75
2023/11/14 06:34:47;;;;;;;2.83;0.88;;;11.30;92.10;;;;;;5008082;28;20463;-75
2023/11/14 06:37:13;;;;;;;3.22;0.98;;;11.30;92.10;;;;;;5004943;28;20040;-74
2023/11/14 06:39:40;;;;;;;5.88;0.80;;;11.40;91.80;;;;;;5006324;28;20033;-76
2023/11/14 06:42:07;;;;;;;3.58;0.75;;;11.40;91.10;;;;;;5011495;28;20100;-74
2023/11/14 06:44:35;;;;;;;3.90;1.00;;;11.40;91.30;;;;;;5005412;28;20034;-77
2023/11/14 06:47:02;;;;;;;3.67;0.90;;;11.40;91.50;;;;;;4999975;28;20046;-77
2023/11/14 06:49:27;;;;;;;2.13;0.60;;;11.40;91.40;;;;;;5005621;28;20026;-75
2023/11/14 06:51:53;;;;;;;1.08;0.68;;;11.40;91.30;;;;;;5007682;28;20034;-75
2023/11/14 06:54:18;;;;;;;3.30;0.88;;;11.40;91.10;;;;;;5007480;28;20033;-76
2023/11/14 06:56:44;;;;;;;4.68;0.90;;;11.50;90.70;;;;;;5001231;28;20363;-75
2023/11/14 06:59:10;;;;;;;1.45;0.70;;;11.50;90.80;;;;;;5006973;28;21324;-75
2023/11/14 07:01:36;;;;;;;2.65;0.75;;;11.50;90.80;;;;;;5008663;28;20036;-75
2023/11/14 07:04:02;;;;;;;3.90;1.05;;;11.50;91.10;;;;;;4996886;28;20030;-76
2023/11/14 07:06:28;;;;;;;8.48;0.98;;;11.40;92.20;;;;;;5001759;28;20030;-77
2023/11/14 07:08:54;;;;;;;3.63;0.82;;;11.40;91.70;;;;;;5007589;28;20382;-76
2023/11/14 07:11:21;;;;;;;1.73;0.50;;;11.30;92.00;;;;;;5004960;28;20029;-76
2023/11/14 07:13:47;;;;;;;2.60;0.80;;;11.40;91.40;;;;;;5005436;28;20486;-77
2023/11/14 07:16:13;;;;;;;3.80;0.55;;;11.40;91.80;;;;;;5005977;28;20026;-77
2023/11/14 07:18:39;;;;;;;2.78;0.90;;;11.30;91.70;;;;;;5003301;28;20030;-77
2023/11/14 07:21:04;;;;;;;2.92;0.90;;;11.40;91.60;;;;;;5000676;28;20502;-80
2023/11/14 07:23:30;;;;;;;6.22;1.10;;;11.40;92.20;;;;;;5003326;28;20052;-75
2023/11/14 07:25:55;;;;;;;3.83;0.55;;;11.30;92.40;;;;;;5001415;28;20411;-75
2023/11/14 07:28:21;;;;;;;2.55;0.80;;;11.40;92.00;;;;;;5006565;28;20065;-75
2023/11/14 07:30:48;;;;;;;4.82;0.82;;;11.40;91.80;;;;;;5003982;28;20019;-75
2023/11/14 07:33:15;;;;;;;1.75;0.57;;;11.50;91.00;;;;;;5013946;28;20459;-75
2023/11/14 07:35:40;;;;;;;2.50;0.55;;;11.50;91.30;;;;;;4999376;28;20485;-75
2023/11/14 07:38:06;;;;;;;6.35;1.00;;;11.50;90.80;;;;;;5004376;28;20022;-74
2023/11/14 07:40:32;;;;;;;3.25;1.25;;;11.60;90.00;;;;;;5008264;28;20060;-74
2023/11/14 07:43:00;;;;;;;3.60;0.60;;;11.60;90.20;;;;;;5001422;28;20038;-74
2023/11/14 07:45:27;;;;;;;3.05;1.00;;;11.60;89.80;;;;;;5007469;28;20042;-74
2023/11/14 07:47:52;;;;;;;0.80;0.35;;;11.70;89.90;;;;;;5007623;28;20037;-74
2023/11/14 07:50:18;;;;;;;5.05;0.85;;;11.50;91.00;;;;;;5013400;28;20173;-75
2023/11/14 07:52:43;;;;;;;0.63;0.30;;;11.40;91.10;;;;;;5008591;28;20581;-74
2023/11/14 07:55:11;;;;;;;2.17;0.65;;;11.50;90.70;;;;;;5012403;28;20434;-75
2023/11/14 07:57:37;;;;;;;2.75;0.70;;;11.60;90.00;;;;;;5011498;28;20025;-74
2023/11/14 08:00:06;;;;;;;0.75;0.40;;;11.60;89.70;;;;;;5006281;28;20037;-75
2023/11/14 08:02:32;;;;;;;1.85;0.68;;;11.70;89.50;;;;;;5009828;28;20022;-74
2023/11/14 08:04:57;;;;;;;1.80;0.75;;;11.70;89.50;;;;;;5010750;28;20034;-75
2023/11/14 08:07:23;;;;;;;6.30;1.33;;;11.70;89.70;;;;;;5015303;28;20038;-75
2023/11/14 08:09:49;;;;;;;2.72;0.57;;;11.60;89.90;;;;;;5008504;28;20030;-75
2023/11/14 08:12:14;;;;;;;1.65;0.55;;;11.60;89.90;;;;;;5004762;28;20494;-74
2023/11/14 08:14:40;;;;;;;2.47;0.60;;;11.60;90.10;;;;;;5009803;28;20022;-74
2023/11/14 08:17:05;;;;;;;3.25;0.55;;;11.70;90.00;;;;;;5012390;28;20061;-74
2023/11/14 08:19:31;;;;;;;3.92;0.82;;;11.70;89.70;;;;;;5012076;28;20355;-74
2023/11/14 08:22:03;;;;;;;1.70;0.65;;;11.70;89.50;;;;;;5013029;28;20129;-74
2023/11/14 08:24:29;;;;;;;3.33;0.60;;;11.70;90.00;;;;;;5008351;28;20482;-75
2023/11/14 08:26:54;;;;;;;0.88;0.43;;;11.70;89.90;;;;;;5009449;28;20057;-74
2023/11/14 08:29:20;;;;;;;2.35;0.55;;;11.70;89.70;;;;;;5007066;28;20084;-74
2023/11/14 08:31:45;;;;;;;1.75;0.70;;;11.70;89.60;;;;;;5012036;28;20046;-74
2023/11/14 08:34:11;;;;;;;2.40;0.70;;;11.70;89.50;;;;;;5010570;28;20026;-74
2023/11/14 08:36:38;;;;;;;1.55;0.40;;;11.70;89.50;;;;;;5012738;28;20040;-75
2023/11/14 08:39:04;;;;;;;2.78;0.63;;;11.70;89.90;;;;;;5007605;28;20025;-74
2023/11/14 08:41:30;;;;;;;3.95;0.60;;;11.60;90.30;;;;;;5013690;28;20088;-74
2023/11/14 08:43:57;;;;;;;2.95;0.75;;;11.60;90.80;;;;;;5007296;28;20046;-74
2023/11/14 08:46:22;;;;;;;2.88;0.65;;;11.60;91.40;;;;;;5005142;28;20033;-74
2023/11/14 08:48:48;;;;;;;3.40;0.70;;;11.60;91.10;;;;;;5005807;28;20049;-74
2023/11/14 08:51:17;;;;;;;3.40;0.70;;;11.60;91.40;;;;;;5010163;28;20061;-75
2023/11/14 08:53:45;;;;;;;2.05;0.63;;;11.60;91.80;;;;;;5012716;28;20581;-74
2023/11/14 08:56:11;;;;;;;4.05;0.45;;;11.60;92.00;;;;;;5011673;28;20467;-74
2023/11/14 08:58:36;;;;;;;3.20;1.08;;;11.50;92.30;;;;;;5011123;28;20073;-74
2023/11/14 09:01:04;;;;;;;1.70;0.85;;;11.50;92.50;;;;;;5001921;28;20057;-75
2023/11/14 09:03:29;;;;;;;4.07;0.85;;;11.50;92.80;;;;;;5010088;28;20022;-74
2023/11/14 09:05:55;;;;;;;1.02;0.50;;;11.60;92.70;;;;;;5010146;28;20038;-74
2023/11/14 09:08:20;;;;;;;3.72;1.27;;;11.60;92.90;;;;;;5012560;28;20101;-75
2023/11/14 09:10:46;;;;;;;4.82;1.17;;;11.60;93.00;;;;;;5005478;28;20418;-74
2023/11/14 09:13:12;;;;;;;3.75;1.05;;;11.70;92.60;;;;;;5008486;28;20061;-74
2023/11/14 09:15:39;;;;;;;5.18;1.00;;;11.70;92.60;;;;;;5007086;28;20022;-74
2023/11/14 09:18:04;;;;;;;2.63;0.70;;;11.80;92.70;;;;;;5004669;28;20030;-74
2023/11/14 09:20:30;;;;;;;4.68;1.13;;;11.80;92.60;;;;;;5009059;28;20050;-75
2023/11/14 09:22:56;;;;;;;3.17;1.30;;;11.80;92.10;;;;;;5012161;28;20120;-74
2023/11/14 09:25:21;;;;;;;2.88;1.15;;;11.80;92.10;;;;;;5008110;28;20049;-74
2023/11/14 09:27:47;;;;;;;3.72;0.95;;;11.90;91.80;;;;;;5004903;28;20050;-74
2023/11/14 09:30:14;;;;;;;2.65;1.10;;;12.00;91.50;;;;;;5008409;28;20045;-74
2023/11/14 09:32:40;;;;;;;6.65;1.05;;;12.00;91.30;;;;;;5008789;28;20029;-74
2023/11/14 09:35:05;;;;;;;3.38;1.20;;;12.00;91.10;;;;;;5008226;28;20105;-75
2023/11/14 09:37:31;;;;;;;3.63;1.05;;;11.90;91.10;;;;;;5005864;28;20084;-75
2023/11/14 09:39:56;;;;;;;1.77;0.68;;;11.90;91.10;;;;;;5009976;28;20479;-74
2023/11/14 09:42:22;;;;;;;4.50;0.90;;;11.90;90.60;;;;;;5006056;28;20084;-74
2023/11/14 09:44:49;;;;;;;2.97;0.82;;;12.00;89.90;;;;;;5006479;28;20108;-74
2023/11/14 09:47:15;;;;;;;6.35;1.08;;;12.00;90.30;;;;;;5009307;28;20368;-74
2023/11/14 09:49:42;;;;;;;5.82;1.15;;;12.00;90.20;;;;;;5009638;28;20096;-75
2023/11/14 09:52:10;;;;;;;8.48;1.63;;;11.80;90.50;;;;;;5002858;28;20106;-74
2023/11/14 09:54:37;;;;;;;2.20;0.65;;;11.80;90.30;;;;;;5008260;28;20434;-74
2023/11/14 09:57:04;;;;;;;3.60;1.00;;;12.00;90.30;;;;;;5008999;28;20126;-75
2023/11/14 09:59:32;;;;;;;2.83;0.82;;;11.90;90.50;;;;;;5007110;28;20022;-75
2023/11/14 10:01:58;;;;;;;3.75;0.80;;;11.80;90.80;;;;;;5004774;28;20087;-74
2023/11/14 10:04:23;;;;;;;5.55;0.80;;;11.90;90.70;;;;;;5005032;28;20045;-74
2023/11/14 10:06:51;;;;;;;2.50;1.10;;;12.10;90.00;;;;;;5004510;28;20026;-74
2023/11/14 10:09:19;;;;;;;3.38;0.60;;;12.20;89.50;;;;;;5005632;28;20072;-74
2023/11/14 10:11:46;;;;;;;3.17;1.20;;;12.50;89.70;;;;;;5006340;28;20045;-74
2023/11/14 10:14:12;;;;;;;3.08;0.80;;;12.40;89.60;;;;;;5004388;28;20034;-75
2023/11/14 10:16:38;;;;;;;2.22;0.60;;;12.40;90.10;;;;;;5000028;28;20097;-75
2023/11/14 10:19:10;;;;;;;1.77;0.90;;;12.50;90.20;;;;;;5009060;28;20149;-75
2023/11/14 10:21:36;;;;;;;1.40;0.77;;;12.50;89.90;;;;;;5012510;28;20017;-74
2023/11/14 10:24:11;;;;;;;3.15;1.23;;;12.40;90.20;;;;;;5003755;28;20040;-74
2023/11/14 10:26:50;;;;;;;2.20;1.05;;;12.40;89.90;;;;;;5003942;28;20049;-74
2023/11/14 10:29:17;;;;;;;3.10;0.80;;;12.30;89.30;;;;;;4999904;28;20034;-75
2023/11/14 10:31:43;;;;;;;6.00;1.30;;;12.40;89.20;;;;;;5009489;28;20100;-74
2023/11/14 10:34:27;;;;;;;2.92;0.82;;;12.40;89.20;;;;;;5008523;28;20030;-75
2023/11/14 10:36:54;;;;;;;2.05;0.95;;;12.50;88.80;;;;;;5008501;28;20040;-74
2023/11/14 10:39:20;;;;;;;3.42;1.02;;;12.80;87.80;;;;;;5012661;28;20025;-75
2023/11/14 10:41:46;;;;;;;4.88;0.90;;;12.90;87.70;;;;;;5003238;28;20030;-75
2023/11/14 10:44:13;;;;;;;4.75;1.00;;;13.10;87.20;;;;;;5004924;28;20057;-75
2023/11/14 10:46:51;;;;;;;3.30;1.25;;;13.20;86.70;;;;;;5004843;28;20101;-75
2023/11/14 10:49:18;;;;;;;3.70;0.93;;;13.30;86.20;;;;;;5000284;28;20034;-75
2023/11/14 10:51:45;;;;;;;5.15;1.35;;;13.20;86.40;;;;;;5002836;28;20028;-75
2023/11/14 10:54:13;;;;;;;2.80;1.15;;;12.90;87.10;;;;;;5002731;28;20030;-75
2023/11/14 10:56:39;;;;;;;3.03;0.90;;;12.80;87.60;;;;;;5004694;28;20426;-75
2023/11/14 10:59:09;;;;;;;4.20;0.77;;;12.80;88.20;;;;;;5001540;28;20041;-75
2023/11/14 11:01:36;;;;;;;4.13;1.20;;;12.70;88.20;;;;;;5003155;28;20494;-75
2023/11/14 11:04:02;;;;;;;4.32;0.80;;;12.70;88.00;;;;;;5010332;28;20077;-74
2023/11/14 11:06:28;;;;;;;2.42;0.60;;;12.70;87.80;;;;;;5007626;28;20471;-76
2023/11/14 11:08:54;;;;;;;7.07;1.17;;;12.70;88.00;;;;;;5004078;28;20033;-75
2023/11/14 11:11:28;;;;;;;3.67;1.00;;;12.60;88.20;;;;;;4999676;28;20050;-74
2023/11/14 11:13:56;;;;;;;2.40;1.42;;;12.50;89.00;;;;;;5006004;28;20069;-75
2023/11/14 11:16:45;;;;;;;4.50;0.82;;;12.50;89.60;;;;;;5002628;28;20044;-75
2023/11/14 11:19:17;;;;;;;5.68;1.40;;;12.50;89.10;;;;;;5001259;28;20030;-77
2023/11/14 11:22:06;;;;;;;2.05;0.95;;;12.50;89.00;;;;;;5005668;28;21189;-77
2023/11/14 11:24:32;;;;;;;1.77;0.75;;;12.50;88.80;;;;;;5012464;28;20033;-75
2023/11/14 11:27:17;;;;;;;4.15;1.15;;;12.50;89.10;;;;;;5008950;28;20061;-74
2023/11/14 11:29:44;;;;;;;6.65;0.95;;;12.60;88.80;;;;;;5006343;28;20037;-75
2023/11/14 11:32:28;;;;;;;3.92;0.82;;;12.60;88.50;;;;;;5010658;28;20033;-75
2023/11/14 11:35:18;;;;;;;3.40;0.77;;;12.60;88.50;;;;;;5005770;28;20490;-75
2023/11/14 11:38:08;;;;;;;5.00;1.35;;;12.60;88.20;;;;;;5006983;28;20065;-76
2023/11/14 11:40:33;;;;;;;5.78;1.45;;;12.60;88.00;;;;;;5005123;28;20038;-75
2023/11/14 11:43:12;;;;;;;4.82;0.90;;;12.60;87.50;;;;;;5010747;28;20489;-74
2023/11/14 11:45:41;;;;;;;3.40;0.82;;;12.60;87.60;;;;;;5007818;28;20042;-74
2023/11/14 11:48:28;;;;;;;6.90;1.23;;;12.60;86.70;;;;;;5013016;28;20034;-74
2023/11/14 11:50:53;;;;;;;4.68;0.93;;;12.60;87.40;;;;;;5007877;28;20565;-74
2023/11/14 11:53:42;;;;;;;3.47;0.55;;;12.50;88.80;;;;;;5006475;28;20117;-74
2023/11/14 11:56:12;;;;;;;4.32;0.75;;;12.30;90.00;;;;;;5008329;28;20398;-73
2023/11/14 11:58:48;;;;;;;2.38;1.10;;;12.30;90.00;;;;;;5006702;28;20561;-74
2023/11/14 12:01:15;;;;;;;4.97;1.02;;;12.20;89.30;;;;;;5006936;28;20041;-75
2023/11/14 12:03:41;;;;;;;3.05;0.75;;;12.30;89.30;;;;;;5006727;28;20030;-75
2023/11/14 12:06:09;;;;;;;2.45;0.50;;;12.20;89.20;;;;;;5012806;28;20037;-75
2023/11/14 12:08:36;;;;;;;4.60;1.27;;;12.10;89.80;;;;;;5006284;28;20082;-75
2023/11/14 12:11:06;;;;;;;3.72;1.02;;;11.80;91.70;;;;;;5001490;28;20060;-76
2023/11/14 12:13:31;;;;;;;1.23;0.55;;;11.60;92.30;;;;;;5024023;28;20049;-75
2023/11/14 12:15:57;;;;;;;2.13;0.75;;;11.40;93.10;;;;;;5004822;28;20045;-75
2023/11/14 12:18:22;;;;;;;2.30;0.60;;;11.30;93.70;;;;;;5009126;28;20033;-74
2023/11/14 12:20:49;;;;;;;3.47;0.85;;;11.10;94.90;;;;;;5008204;28;20041;-75
2023/11/14 12:23:14;;;;;;;4.20;0.93;;;11.00;95.40;;;;;;5004241;28;20022;-76
2023/11/14 12:25:40;;;;;;;1.85;0.55;;;10.70;97.30;;;;;;5000060;28;20037;-77
2023/11/14 12:28:06;;;;;;;4.35;1.08;;;10.60;98.40;;;;;;5003314;28;20038;-75
2023/11/14 12:30:32;;;;;;;2.58;0.77;;;10.60;98.70;;;;;;5002850;28;20018;-77
2023/11/14 12:33:02;;;;;;;1.30;0.43;;;10.60;98.70;;;;;;5006965;28;20026;-76
2023/11/14 12:35:42;;;;;;;3.07;0.73;;;10.70;97.90;;;;;;5008704;28;20096;-75
2023/11/14 12:38:07;;;;;;;2.00;0.60;;;10.90;97.80;;;;;;5003530;28;20037;-77
2023/11/14 12:40:33;;;;;;;4.97;0.85;;;11.10;96.70;;;;;;5013097;28;20034;-75
2023/11/14 12:42:58;;;;;;;3.33;1.38;;;11.30;95.40;;;;;;5001422;28;20027;-76
2023/11/14 12:45:24;;;;;;;1.05;0.57;;;11.30;95.80;;;;;;5003245;28;20121;-76